createdAt,value
2018-05-27T00:02:05.355Z,99.90
2018-05-27T00:04:35.824Z,99.90
2018-05-27T00:07:06.817Z,99.90
2018-05-27T00:09:37.128Z,99.90
2018-05-27T00:12:07.196Z,99.90
2018-05-27T00:14:37.255Z,99.90
2018-05-27T00:17:08.382Z,99.90
2018-05-27T00:19:39.381Z,99.90
2018-05-27T00:22:09.724Z,99.90
2018-05-27T00:24:41.707Z,99.90
2018-05-27T00:27:12.744Z,99.90
2018-05-27T00:29:44.150Z,99.90
2018-05-27T00:32:14.915Z,99.90
2018-05-27T00:34:44.986Z,99.90
2018-05-27T00:37:15.144Z,99.90
2018-05-27T00:42:07.604Z,99.90
2018-05-27T00:44:37.763Z,99.90
2018-05-27T00:47:08.084Z,99.90
2018-05-27T00:49:38.471Z,99.90
2018-05-27T00:52:08.733Z,99.90
2018-05-27T00:54:38.769Z,99.90
2018-05-27T00:57:09.468Z,99.90
2018-05-27T00:59:39.532Z,99.90
2018-05-27T01:02:09.796Z,99.90
2018-05-27T01:04:41.013Z,99.90
2018-05-27T01:07:12.436Z,99.90
2018-05-27T01:09:43.312Z,99.90
2018-05-27T01:12:13.666Z,99.90
2018-05-27T01:14:43.987Z,99.90
2018-05-27T01:17:14.178Z,99.90
2018-05-27T01:19:45.045Z,99.90
2018-05-27T01:22:15.465Z,99.90
2018-05-27T01:24:47.183Z,99.90
2018-05-27T01:27:17.374Z,99.90
2018-05-27T01:29:47.555Z,99.90
2018-05-27T01:32:18.132Z,99.90
2018-05-27T01:34:48.481Z,99.90
2018-05-27T01:37:18.728Z,99.90
2018-05-27T01:39:49.960Z,99.90
2018-05-27T01:42:20.288Z,99.90
2018-05-27T01:44:50.342Z,99.90
2018-05-27T01:47:21.017Z,99.90
2018-05-27T01:49:51.372Z,99.90
2018-05-27T01:52:21.502Z,99.90
2018-05-27T01:54:51.832Z,99.90
2018-05-27T01:57:22.188Z,99.90
2018-05-27T01:59:52.205Z,99.90
2018-05-27T02:02:22.544Z,99.90
2018-05-27T02:04:52.957Z,99.90
2018-05-27T02:07:23.913Z,99.90
2018-05-27T02:09:54.364Z,99.90
2018-05-27T02:12:25.912Z,99.90
2018-05-27T02:14:56.202Z,99.90
2018-05-27T02:17:26.236Z,99.90
2018-05-27T02:19:56.485Z,99.90
2018-05-27T02:22:27.284Z,99.90
2018-05-27T02:24:57.270Z,99.90
2018-05-27T02:27:27.270Z,99.90
2018-05-27T02:29:58.516Z,99.90
2018-05-27T02:32:28.984Z,99.90
2018-05-27T02:34:58.997Z,99.90
2018-05-27T02:37:29.251Z,99.90
2018-05-27T02:39:59.253Z,99.90
2018-05-27T02:42:29.482Z,99.90
2018-05-27T02:45:00.216Z,99.90
2018-05-27T02:47:30.450Z,99.90
2018-05-27T02:50:00.532Z,99.90
2018-05-27T02:52:31.613Z,99.90
2018-05-27T02:55:02.378Z,99.90
2018-05-27T02:57:32.836Z,99.90
2018-05-27T03:00:02.904Z,99.90
2018-05-27T03:02:34.055Z,99.90
2018-05-27T03:05:04.138Z,99.90
2018-05-27T03:07:34.128Z,99.90
2018-05-27T03:10:04.593Z,99.90
2018-05-27T03:12:34.813Z,99.90
2018-05-27T03:15:05.675Z,99.90
2018-05-27T03:17:36.032Z,99.90
2018-05-27T03:20:07.192Z,99.90
2018-05-27T03:22:37.264Z,99.90
2018-05-27T03:25:07.327Z,99.90
2018-05-27T03:27:37.513Z,99.90
2018-05-27T03:30:07.768Z,99.90
2018-05-27T03:32:38.297Z,99.90
2018-05-27T03:35:10.134Z,99.90
2018-05-27T03:37:40.371Z,99.90
2018-05-27T03:40:11.941Z,99.90
2018-05-27T03:42:41.970Z,99.90
2018-05-27T03:45:13.280Z,99.90
2018-05-27T03:47:44.054Z,99.90
2018-05-27T03:50:14.351Z,99.90
2018-05-27T03:52:44.392Z,99.90
2018-05-27T03:55:15.459Z,99.90
2018-05-27T03:57:45.736Z,99.90
2018-05-27T04:00:15.763Z,99.90
2018-05-27T04:02:46.132Z,99.90
2018-05-27T04:05:27.930Z,99.90
2018-05-27T04:08:09.096Z,99.90
2018-05-27T04:10:39.153Z,99.90
2018-05-27T04:13:10.351Z,99.90
2018-05-27T04:15:40.360Z,99.90
2018-05-27T04:18:10.548Z,99.90
2018-05-27T04:20:41.681Z,99.90
2018-05-27T04:23:12.040Z,99.90
2018-05-27T04:25:43.202Z,99.90
2018-05-27T04:28:13.258Z,99.90
2018-05-27T04:30:43.606Z,99.90
2018-05-27T04:33:13.843Z,99.90
2018-05-27T04:35:44.602Z,99.90
2018-05-27T04:38:14.665Z,99.90
2018-05-27T04:40:44.695Z,99.90
2018-05-27T04:43:15.796Z,99.90
2018-05-27T04:45:45.860Z,99.90
2018-05-27T04:48:16.728Z,99.90
2018-05-27T04:50:46.856Z,99.90
2018-05-27T04:53:16.889Z,99.90
2018-05-27T04:55:47.527Z,99.90
2018-05-27T04:58:17.564Z,99.90
2018-05-27T05:00:47.576Z,99.90
2018-05-27T05:03:18.082Z,99.90
2018-05-27T05:05:49.233Z,99.90
2018-05-27T05:08:19.623Z,99.90
2018-05-27T05:10:50.093Z,99.90
2018-05-27T05:13:20.685Z,99.90
2018-05-27T05:15:50.919Z,99.90
2018-05-27T05:18:21.352Z,99.90
2018-05-27T05:20:51.405Z,99.90
2018-05-27T05:23:21.704Z,99.90
2018-05-27T05:25:52.309Z,99.90
2018-05-27T05:28:22.373Z,99.90
2018-05-27T05:30:52.676Z,99.90
2018-05-27T05:33:23.111Z,99.90
2018-05-27T05:35:53.146Z,99.90
2018-05-27T05:38:23.249Z,99.90
2018-05-27T05:40:53.755Z,99.90
2018-05-27T05:43:23.837Z,99.90
2018-05-27T05:45:55.002Z,99.90
2018-05-27T05:48:25.285Z,99.90
2018-05-27T05:50:55.308Z,99.90
2018-05-27T05:53:26.253Z,99.90
2018-05-27T05:55:58.087Z,99.90
2018-05-27T05:58:28.100Z,99.90
2018-05-27T06:00:58.174Z,99.90
2018-05-27T06:03:28.558Z,99.90
2018-05-27T06:05:59.645Z,99.90
2018-05-27T06:08:29.637Z,99.90
2018-05-27T06:11:00.123Z,99.90
2018-05-27T06:13:30.688Z,99.90
2018-05-27T06:16:02.040Z,99.90
2018-05-27T06:18:32.949Z,99.90
2018-05-27T06:21:03.442Z,99.90
2018-05-27T06:23:33.534Z,99.90
2018-05-27T06:26:03.859Z,99.90
2018-05-27T06:28:34.533Z,99.90
2018-05-27T06:31:04.648Z,99.90
2018-05-27T06:33:34.732Z,99.90
2018-05-27T06:36:05.156Z,99.90
2018-05-27T06:38:35.462Z,99.90
2018-05-27T06:41:05.648Z,99.90
2018-05-27T06:43:36.004Z,99.90
2018-05-27T06:46:07.109Z,99.90
2018-05-27T06:48:37.188Z,99.90
2018-05-27T06:51:07.934Z,99.90
2018-05-27T06:53:38.213Z,99.90
2018-05-27T06:56:09.274Z,99.90
2018-05-27T06:58:40.217Z,99.90
2018-05-27T07:01:15.710Z,99.90
2018-05-27T07:03:47.926Z,99.90
2018-05-27T07:06:18.854Z,99.90
2018-05-27T07:08:50.502Z,99.90
2018-05-27T07:11:20.593Z,99.90
2018-05-27T07:13:51.471Z,99.90
2018-05-27T07:16:21.833Z,99.90
2018-05-27T07:18:52.213Z,99.90
2018-05-27T07:21:23.071Z,99.90
2018-05-27T07:23:53.335Z,99.90
2018-05-27T07:26:23.772Z,99.90
2018-05-27T07:28:54.896Z,99.90
2018-05-27T07:31:25.245Z,99.90
2018-05-27T07:33:56.056Z,99.90
2018-05-27T07:36:26.117Z,99.90
2018-05-27T07:38:57.298Z,99.90
2018-05-27T07:41:28.540Z,99.90
2018-05-27T07:43:59.007Z,99.90
2018-05-27T07:46:29.924Z,99.90
2018-05-27T07:49:00.033Z,99.90
2018-05-27T07:51:30.324Z,99.90
2018-05-27T07:54:00.448Z,99.90
2018-05-27T07:56:30.909Z,99.90
2018-05-27T07:59:00.931Z,99.90
2018-05-27T08:01:31.608Z,99.90
2018-05-27T08:04:02.553Z,99.90
2018-05-27T08:06:33.713Z,99.90
2018-05-27T08:09:04.399Z,99.90
2018-05-27T08:11:34.724Z,99.90
2018-05-27T08:14:05.519Z,99.90
2018-05-27T08:16:35.885Z,99.90
2018-05-27T08:19:07.729Z,99.90
2018-05-27T08:21:38.036Z,99.90
2018-05-27T08:24:08.036Z,99.90
2018-05-27T08:26:39.090Z,99.90
2018-05-27T08:29:10.467Z,99.90
2018-05-27T08:31:41.565Z,99.90
2018-05-27T08:34:11.570Z,99.90
2018-05-27T08:36:42.686Z,99.90
2018-05-27T08:39:12.819Z,99.90
2018-05-27T08:41:43.697Z,99.90
2018-05-27T08:44:14.049Z,99.90
2018-05-27T08:46:44.168Z,99.90
2018-05-27T08:49:14.782Z,99.90
2018-05-27T08:51:45.205Z,99.90
2018-05-27T08:54:15.969Z,99.90
2018-05-27T08:56:46.023Z,99.90
2018-05-27T08:59:16.392Z,99.90
2018-05-27T09:01:46.474Z,99.90
2018-05-27T09:04:17.080Z,99.90
2018-05-27T09:06:48.274Z,99.90
2018-05-27T09:09:18.588Z,99.90
2018-05-27T09:11:49.356Z,99.90
2018-05-27T09:14:19.613Z,99.90
2018-05-27T09:16:49.900Z,99.90
2018-05-27T09:19:20.893Z,99.90
2018-05-27T09:21:51.931Z,99.90
2018-05-27T09:24:23.158Z,99.90
2018-05-27T09:26:53.167Z,99.90
2018-05-27T09:29:23.416Z,99.90
2018-05-27T09:31:54.624Z,99.90
2018-05-27T09:34:24.640Z,99.90
2018-05-27T09:36:54.668Z,99.90
2018-05-27T09:41:46.601Z,99.90
2018-05-27T09:44:16.800Z,99.90
2018-05-27T09:46:47.264Z,99.90
2018-05-27T09:49:17.295Z,99.90
2018-05-27T09:51:47.283Z,99.90
2018-05-27T09:54:17.617Z,99.90
2018-05-27T09:56:47.616Z,99.90
2018-05-27T09:59:17.698Z,99.90
2018-05-27T10:01:48.258Z,99.90
2018-05-27T10:04:18.258Z,99.90
2018-05-27T10:06:48.273Z,99.90
2018-05-27T10:09:18.671Z,99.90
2018-05-27T10:11:49.474Z,99.90
2018-05-27T10:14:19.847Z,99.90
2018-05-27T10:16:50.099Z,99.90
2018-05-27T10:19:20.205Z,99.90
2018-05-27T10:21:50.250Z,99.90
2018-05-27T10:24:21.401Z,99.90
2018-05-27T10:26:52.443Z,99.90
2018-05-27T10:29:22.489Z,99.90
2018-05-27T10:31:53.604Z,99.90
2018-05-27T10:34:23.839Z,99.90
2018-05-27T10:36:54.645Z,99.90
2018-05-27T10:39:25.818Z,99.90
2018-05-27T10:41:55.830Z,99.90
2018-05-27T10:44:27.095Z,99.90
2018-05-27T10:46:58.255Z,99.90
2018-05-27T10:49:28.393Z,99.90
2018-05-27T10:51:58.645Z,99.90
2018-05-27T10:54:28.957Z,99.90
2018-05-27T10:56:59.296Z,99.90
2018-05-27T10:59:29.542Z,99.90
2018-05-27T11:01:59.808Z,99.90
2018-05-27T11:04:29.923Z,99.90
2018-05-27T11:07:01.194Z,99.90
2018-05-27T11:09:31.491Z,99.90
2018-05-27T11:12:01.489Z,99.90
2018-05-27T11:14:31.841Z,99.90
2018-05-27T11:17:01.948Z,99.90
2018-05-27T11:19:32.145Z,99.90
2018-05-27T11:22:03.839Z,99.90
2018-05-27T11:24:34.260Z,99.90
2018-05-27T11:27:04.676Z,99.90
2018-05-27T11:29:37.266Z,99.90
2018-05-27T11:32:07.604Z,99.90
2018-05-27T11:34:37.580Z,99.90
2018-05-27T11:37:08.826Z,99.90
2018-05-27T11:39:39.912Z,99.90
2018-05-27T11:42:10.045Z,99.90
2018-05-27T11:44:41.174Z,99.90
2018-05-27T11:47:11.887Z,99.90
2018-05-27T11:49:41.987Z,99.90
2018-05-27T11:52:12.352Z,99.90
2018-05-27T11:54:43.262Z,97.90
2018-05-27T11:57:13.608Z,97.80
2018-05-27T11:59:43.963Z,97.20
2018-05-27T12:02:14.490Z,96.20
2018-05-27T12:04:44.924Z,92.10
2018-05-27T12:07:14.957Z,90.10
2018-05-27T12:09:46.237Z,90.60
2018-05-27T12:12:16.424Z,90.60
2018-05-27T12:14:47.365Z,92.20
2018-05-27T12:17:18.303Z,92.30
2018-05-27T12:19:48.674Z,92.30
2018-05-27T12:22:18.739Z,92.20
2018-05-27T12:24:48.973Z,91.50
2018-05-27T12:27:22.269Z,93.80
2018-05-27T12:29:53.171Z,94.00
2018-05-27T12:32:23.329Z,94.00
2018-05-27T12:34:53.745Z,93.10
2018-05-27T12:37:24.454Z,92.40
2018-05-27T12:39:55.961Z,91.70
2018-05-27T12:42:26.382Z,91.70
2018-05-27T12:44:56.622Z,91.50
2018-05-27T12:47:26.856Z,89.50
2018-05-27T12:49:57.216Z,89.80
2018-05-27T12:52:27.326Z,89.10
2018-05-27T12:54:57.716Z,88.30
2018-05-27T12:57:28.425Z,86.60
2018-05-27T12:59:58.727Z,87.30
2018-05-27T13:02:31.804Z,86.30
2018-05-27T13:05:03.105Z,86.20
2018-05-27T13:07:33.185Z,87.70
2018-05-27T13:10:03.810Z,87.60
2018-05-27T13:12:34.409Z,87.30
2018-05-27T13:15:04.600Z,84.40
2018-05-27T13:17:34.781Z,83.00
2018-05-27T13:20:05.429Z,80.70
2018-05-27T13:22:37.089Z,79.90
2018-05-27T13:25:07.256Z,79.90
2018-05-27T13:27:37.820Z,77.70
2018-05-27T13:30:07.953Z,75.40
2018-05-27T13:32:38.827Z,73.10
2018-05-27T13:35:09.232Z,73.00
2018-05-27T13:37:39.999Z,73.00
2018-05-27T13:40:10.498Z,68.90
2018-05-27T13:42:41.212Z,67.20
2018-05-27T13:45:12.176Z,73.30
2018-05-27T13:47:42.439Z,73.30
2018-05-27T13:50:12.851Z,71.30
2018-05-27T13:52:45.141Z,69.20
2018-05-27T13:55:15.597Z,69.20
2018-05-27T13:57:45.871Z,67.10
2018-05-27T14:00:16.094Z,64.30
2018-05-27T14:02:47.292Z,63.80
2018-05-27T14:05:18.149Z,62.70
2018-05-27T14:07:49.253Z,62.60
2018-05-27T14:10:20.999Z,62.10
2018-05-27T14:12:52.181Z,62.10
2018-05-27T14:15:24.025Z,63.30
2018-05-27T14:17:55.035Z,63.30
2018-05-27T14:20:25.270Z,64.10
2018-05-27T14:22:56.200Z,65.90
2018-05-27T14:25:26.627Z,65.90
2018-05-27T14:27:58.981Z,65.20
2018-05-27T14:30:29.531Z,65.20
2018-05-27T14:33:00.723Z,66.50
2018-05-27T14:35:31.553Z,68.00
2018-05-27T14:38:02.843Z,68.90
2018-05-27T14:40:33.321Z,67.40
2018-05-27T14:43:04.259Z,65.30
2018-05-27T14:45:35.418Z,67.60
2018-05-27T14:48:06.692Z,67.60
2018-05-27T14:50:37.981Z,66.10
2018-05-27T14:53:08.369Z,62.10
2018-05-27T14:55:39.003Z,60.00
2018-05-27T14:58:09.461Z,57.70
2018-05-27T15:00:40.021Z,59.70
2018-05-27T15:03:10.947Z,61.10
2018-05-27T15:05:42.063Z,61.90
2018-05-27T15:08:12.222Z,61.90
2018-05-27T15:10:43.602Z,60.20
2018-05-27T15:13:13.697Z,60.10
2018-05-27T15:15:44.851Z,58.50
2018-05-27T15:18:15.661Z,59.30
2018-05-27T15:20:45.761Z,60.30
2018-05-27T15:23:15.932Z,62.00
2018-05-27T15:25:46.269Z,63.90
2018-05-27T15:28:17.330Z,63.70
2018-05-27T15:30:47.508Z,64.50
2018-05-27T15:33:17.796Z,64.50
2018-05-27T15:35:48.749Z,63.20
2018-05-27T15:38:20.195Z,60.20
2018-05-27T15:40:51.462Z,59.60
2018-05-27T15:43:21.754Z,59.70
2018-05-27T15:45:51.871Z,58.30
2018-05-27T15:48:22.696Z,56.10
2018-05-27T15:50:52.787Z,55.30
2018-05-27T15:53:22.835Z,56.70
2018-05-27T15:55:53.340Z,58.60
2018-05-27T15:58:24.044Z,59.10
2018-05-27T16:00:54.077Z,59.20
2018-05-27T16:03:24.541Z,60.30
2018-05-27T16:05:54.766Z,60.40
2018-05-27T16:08:25.013Z,61.80
2018-05-27T16:10:55.812Z,62.10
2018-05-27T16:13:26.505Z,60.60
2018-05-27T16:15:57.396Z,60.50
2018-05-27T16:18:27.833Z,60.50
2018-05-27T16:20:58.613Z,60.20
2018-05-27T16:23:28.885Z,59.30
2018-05-27T16:25:59.216Z,59.40
2018-05-27T16:28:29.476Z,60.10
2018-05-27T16:30:59.976Z,60.00
2018-05-27T16:33:31.437Z,65.20
2018-05-27T16:36:01.943Z,65.10
2018-05-27T16:38:32.055Z,64.70
2018-05-27T16:41:02.483Z,64.20
2018-05-27T16:43:32.591Z,63.40
2018-05-27T16:46:03.434Z,61.80
2018-05-27T16:48:35.112Z,59.00
2018-05-27T16:51:06.105Z,63.10
2018-05-27T16:53:37.458Z,62.50
2018-05-27T16:56:07.858Z,62.50
2018-05-27T16:58:38.688Z,62.10
2018-05-27T17:01:09.173Z,63.30
2018-05-27T17:03:39.511Z,63.90
2018-05-27T17:06:09.789Z,64.00
2018-05-27T17:08:40.450Z,64.50
2018-05-27T17:11:11.594Z,65.20
2018-05-27T17:13:41.869Z,66.60
2018-05-27T17:16:12.064Z,68.10
2018-05-27T17:18:43.257Z,67.30
2018-05-27T17:21:13.391Z,67.30
2018-05-27T17:23:43.761Z,69.00
2018-05-27T17:26:15.936Z,69.60
2018-05-27T17:28:46.129Z,69.60
2018-05-27T17:31:16.935Z,69.80
2018-05-27T17:33:47.031Z,69.70
2018-05-27T17:36:18.500Z,73.30
2018-05-27T17:38:49.079Z,73.20
2018-05-27T17:41:19.214Z,75.70
2018-05-27T17:43:49.371Z,76.80
2018-05-27T17:46:20.958Z,75.70
2018-05-27T17:48:51.207Z,76.80
2018-05-27T17:51:21.468Z,77.80
2018-05-27T17:53:53.587Z,77.10
2018-05-27T17:56:25.034Z,76.90
2018-05-27T17:58:56.483Z,77.50
2018-05-27T18:01:27.930Z,79.40
2018-05-27T18:03:58.835Z,79.30
2018-05-27T18:06:29.034Z,79.30
2018-05-27T18:08:59.263Z,78.30
2018-05-27T18:11:29.578Z,77.00
2018-05-27T18:14:00.338Z,76.00
2018-05-27T18:16:30.766Z,78.40
2018-05-27T18:19:01.949Z,83.40
2018-05-27T18:21:32.777Z,85.10
2018-05-27T18:24:04.186Z,85.20
2018-05-27T18:26:34.763Z,87.90
2018-05-27T18:29:05.978Z,90.10
2018-05-27T18:31:36.049Z,90.10
2018-05-27T18:34:07.177Z,91.50
2018-05-27T18:36:37.370Z,91.40
2018-05-27T18:39:07.863Z,92.50
2018-05-27T18:41:38.515Z,93.00
2018-05-27T18:44:08.707Z,94.40
2018-05-27T18:46:38.935Z,96.80
2018-05-27T18:49:10.829Z,99.90
2018-05-27T18:51:41.111Z,99.90
2018-05-27T18:54:12.297Z,99.90
2018-05-27T18:56:43.325Z,99.90
2018-05-27T18:59:13.913Z,99.90
2018-05-27T19:01:44.239Z,99.90
2018-05-27T19:04:15.060Z,99.90
2018-05-27T19:06:45.232Z,99.90
2018-05-27T19:09:16.537Z,99.90
2018-05-27T19:11:46.942Z,99.90
2018-05-27T19:14:17.949Z,99.90
2018-05-27T19:16:50.590Z,99.90
2018-05-27T19:19:21.203Z,99.90
2018-05-27T19:21:52.366Z,99.90
2018-05-27T19:24:23.850Z,99.90
2018-05-27T19:26:54.319Z,99.90
2018-05-27T19:29:27.322Z,99.90
2018-05-27T19:31:59.236Z,99.90
2018-05-27T19:34:29.824Z,99.90
2018-05-27T19:36:59.988Z,99.90
2018-05-27T19:39:30.519Z,99.90
2018-05-27T19:42:01.214Z,99.90
2018-05-27T19:44:31.790Z,99.90
2018-05-27T19:47:02.228Z,99.90
2018-05-27T19:49:33.204Z,99.90
2018-05-27T19:52:04.531Z,99.90
2018-05-27T19:54:38.800Z,99.90
2018-05-27T19:57:10.359Z,99.90
2018-05-27T19:59:42.014Z,99.90
2018-05-27T20:02:12.964Z,99.90
2018-05-27T20:04:43.983Z,99.90
2018-05-27T20:07:14.828Z,99.90
2018-05-27T20:09:45.095Z,99.90
2018-05-27T20:12:15.582Z,99.90
2018-05-27T20:14:46.966Z,99.90
2018-05-27T20:17:17.716Z,99.90
2018-05-27T20:19:48.487Z,99.90
2018-05-27T20:22:20.605Z,99.90
2018-05-27T20:24:54.157Z,99.90
2018-05-27T20:27:26.803Z,99.90
2018-05-27T20:29:57.205Z,99.90
2018-05-27T20:32:27.858Z,99.90
2018-05-27T20:34:58.370Z,99.90
2018-05-27T20:37:28.478Z,99.90
2018-05-27T20:39:59.373Z,99.90
2018-05-27T20:42:29.958Z,99.90
2018-05-27T20:45:00.261Z,99.90
2018-05-27T20:47:31.089Z,99.90
2018-05-27T20:50:03.466Z,99.90
2018-05-27T20:52:34.402Z,99.90
2018-05-27T20:55:05.698Z,99.90
2018-05-27T20:57:35.907Z,99.90
2018-05-27T21:00:06.433Z,99.90
2018-05-27T21:02:38.489Z,99.90
2018-05-27T21:05:09.628Z,99.90
2018-05-27T21:07:41.251Z,99.90
2018-05-27T21:10:12.949Z,99.90
2018-05-27T21:12:43.428Z,99.90
2018-05-27T21:15:15.213Z,99.90
2018-05-27T21:17:45.366Z,99.90
2018-05-27T21:20:15.711Z,99.90
2018-05-27T21:22:47.081Z,99.90
2018-05-27T21:25:18.078Z,99.90
2018-05-27T21:27:48.174Z,99.90
2018-05-27T21:30:18.214Z,99.90
2018-05-27T21:32:48.760Z,99.90
2018-05-27T21:35:19.778Z,99.90
2018-05-27T21:37:49.913Z,99.90
2018-05-27T21:40:20.533Z,99.90
2018-05-27T21:42:50.829Z,99.90
2018-05-27T21:45:21.035Z,99.90
2018-05-27T21:47:52.137Z,99.90
2018-05-27T21:50:22.544Z,99.90
2018-05-27T21:52:52.628Z,99.90
2018-05-27T21:55:22.890Z,99.90
2018-05-27T21:57:54.789Z,99.90
2018-05-27T22:00:25.361Z,99.90
2018-05-27T22:02:55.429Z,99.90
2018-05-27T22:05:25.875Z,99.90
2018-05-27T22:07:57.012Z,99.90
2018-05-27T22:10:27.338Z,99.90
2018-05-27T22:12:59.301Z,99.90
2018-05-27T22:15:29.706Z,99.90
2018-05-27T22:18:00.791Z,99.90
2018-05-27T22:20:31.049Z,99.90
2018-05-27T22:23:01.461Z,99.90
2018-05-27T22:25:31.442Z,99.90
2018-05-27T22:28:02.313Z,99.90
2018-05-27T22:30:32.284Z,99.90
2018-05-27T22:33:03.461Z,99.90
2018-05-27T22:35:33.504Z,99.90
2018-05-27T22:38:03.556Z,99.90
2018-05-27T22:40:34.570Z,99.90
2018-05-27T22:43:04.892Z,99.90
2018-05-27T22:45:34.992Z,99.90
2018-05-27T22:48:05.315Z,99.90
2018-05-27T22:50:35.628Z,99.90
2018-05-27T22:53:05.641Z,99.90
2018-05-27T22:55:35.658Z,99.90
2018-05-27T22:58:05.950Z,99.90
2018-05-27T23:00:36.826Z,99.90
2018-05-27T23:03:08.001Z,99.90
2018-05-27T23:05:38.107Z,99.90
2018-05-27T23:08:08.550Z,99.90
2018-05-27T23:10:39.899Z,99.90
2018-05-27T23:13:10.235Z,99.90
2018-05-27T23:15:40.868Z,99.90
2018-05-27T23:18:11.417Z,99.90
2018-05-27T23:20:42.167Z,99.90
2018-05-27T23:23:13.965Z,99.90
2018-05-27T23:25:46.004Z,99.90
2018-05-27T23:28:16.080Z,99.90
2018-05-27T23:30:46.136Z,99.90
2018-05-27T23:33:16.168Z,99.90
2018-05-27T23:35:46.630Z,99.90
2018-05-27T23:38:16.732Z,99.90
2018-05-27T23:40:47.589Z,99.90
2018-05-27T23:43:17.962Z,99.90
2018-05-27T23:45:48.084Z,99.90
2018-05-27T23:48:18.960Z,99.90
2018-05-27T23:50:50.145Z,99.90
2018-05-27T23:53:20.493Z,99.90
2018-05-27T23:55:50.991Z,99.90
2018-05-27T23:58:21.990Z,99.90
